Time;durP1;ratioP1;P1;durP2;ratioP2;P2;SDS_P1;SDS_P2;PMS_P1;PMS_P2;Temp;Humidity;BMP_temperature;BMP_pressure;BME280_temperature;BME280_humidity;BME280_pressure;Samples;Min_cycle;Max_cycle;Signal;HPM_P1;HPM_P2
2023/04/30 00:02:15;;;;;;;5.18;4.38;;;23.70;76.70;;;;;;6245708;28;95037;-70
2023/04/30 00:05:18;;;;;;;4.90;4.40;;;23.70;76.80;;;;;;6251747;28;93996;-70
2023/04/30 00:08:20;;;;;;;4.90;4.20;;;23.70;76.90;;;;;;6249410;28;94015;-70
2023/04/30 00:11:24;;;;;;;4.85;4.40;;;23.70;76.90;;;;;;6245714;28;94195;-70
2023/04/30 00:14:26;;;;;;;5.47;4.57;;;23.70;76.90;;;;;;6245511;28;94165;-70
2023/04/30 00:17:28;;;;;;;4.75;4.25;;;23.70;76.90;;;;;;6244323;28;94084;-70
2023/04/30 00:20:32;;;;;;;5.22;4.25;;;23.70;76.90;;;;;;6251194;27;94049;-71
2023/04/30 00:23:34;;;;;;;4.78;4.30;;;23.70;76.90;;;;;;6241280;28;92957;-70
2023/04/30 00:26:36;;;;;;;4.80;4.32;;;23.70;76.80;;;;;;6240276;28;94103;-71
2023/04/30 00:29:38;;;;;;;4.85;4.45;;;23.60;76.70;;;;;;6245122;28;94118;-70
2023/04/30 00:32:40;;;;;;;4.80;4.20;;;23.60;76.60;;;;;;6246573;28;96569;-70
2023/04/30 00:35:44;;;;;;;5.22;4.72;;;23.60;76.60;;;;;;6249889;28;94639;-71
2023/04/30 00:38:46;;;;;;;5.10;4.60;;;23.60;76.70;;;;;;6249242;28;94052;-70
2023/04/30 00:41:48;;;;;;;4.85;4.30;;;23.70;76.70;;;;;;6245311;28;94512;-70
2023/04/30 00:44:50;;;;;;;5.75;4.68;;;23.60;76.60;;;;;;6251510;28;94204;-71
2023/04/30 00:47:52;;;;;;;5.10;4.70;;;23.60;76.60;;;;;;6246562;28;94454;-71
2023/04/30 00:50:56;;;;;;;5.35;4.85;;;23.60;76.60;;;;;;6250905;27;94440;-71
2023/04/30 00:54:00;;;;;;;5.07;4.60;;;23.60;76.60;;;;;;6251461;28;93512;-71
2023/04/30 00:57:03;;;;;;;4.72;4.32;;;23.60;76.60;;;;;;6250198;28;94794;-72
2023/04/30 01:00:10;;;;;;;4.95;4.53;;;23.60;76.40;;;;;;6247995;28;94127;-71
2023/04/30 01:03:12;;;;;;;4.95;4.47;;;23.60;76.40;;;;;;6241763;28;95189;-71
2023/04/30 01:06:15;;;;;;;5.55;5.05;;;23.60;76.40;;;;;;6249867;28;94035;-71
2023/04/30 01:09:18;;;;;;;5.00;4.50;;;23.60;76.30;;;;;;6247913;28;94040;-71
2023/04/30 01:12:26;;;;;;;4.95;4.50;;;23.50;76.30;;;;;;6247688;28;94109;-71
2023/04/30 01:15:35;;;;;;;5.28;4.78;;;23.50;76.20;;;;;;6249491;28;92911;-71
2023/04/30 01:18:43;;;;;;;5.07;4.55;;;23.50;76.20;;;;;;6251288;28;94382;-71
2023/04/30 01:21:48;;;;;;;5.28;4.78;;;23.50;76.10;;;;;;6248776;28;94077;-72
2023/04/30 01:25:06;;;;;;;5.38;4.88;;;23.50;76.10;;;;;;6244678;28;93395;-72
2023/04/30 01:28:14;;;;;;;4.85;4.35;;;23.50;76.20;;;;;;6248724;28;94275;-71
2023/04/30 01:31:19;;;;;;;5.45;4.95;;;23.50;76.10;;;;;;6246676;28;94047;-71
2023/04/30 01:34:20;;;;;;;5.47;4.97;;;23.50;76.10;;;;;;6249502;28;94967;-72
2023/04/30 01:37:31;;;;;;;6.57;5.90;;;23.50;76.10;;;;;;6251746;27;94260;-72
2023/04/30 01:40:42;;;;;;;6.25;5.20;;;23.50;76.10;;;;;;6251218;28;94085;-72
2023/04/30 01:43:55;;;;;;;6.20;5.60;;;23.50;76.10;;;;;;6256398;28;94892;-72
2023/04/30 01:47:04;;;;;;;6.18;5.35;;;23.50;76.00;;;;;;6253316;28;94227;-72
2023/04/30 01:50:15;;;;;;;6.22;5.63;;;23.50;76.10;;;;;;6253851;28;94406;-72
2023/04/30 01:53:22;;;;;;;6.78;5.80;;;23.50;76.00;;;;;;6244659;28;94101;-72
2023/04/30 01:56:31;;;;;;;6.47;5.90;;;23.40;75.90;;;;;;6251285;28;93301;-72
2023/04/30 01:59:38;;;;;;;6.18;5.57;;;23.40;75.80;;;;;;6253990;28;94182;-72
2023/04/30 02:02:40;;;;;;;6.10;5.53;;;23.40;75.90;;;;;;6253877;28;94143;-72
2023/04/30 02:05:42;;;;;;;6.38;5.78;;;23.40;75.90;;;;;;6251948;28;95047;-72
2023/04/30 02:08:44;;;;;;;6.25;5.65;;;23.50;75.90;;;;;;6252885;28;94208;-72
2023/04/30 02:11:46;;;;;;;6.22;5.72;;;23.40;75.70;;;;;;6253658;28;94092;-72
2023/04/30 02:14:49;;;;;;;6.03;5.53;;;23.40;75.70;;;;;;6247348;28;94074;-71
2023/04/30 02:17:51;;;;;;;6.65;6.05;;;23.40;75.70;;;;;;6244201;28;94128;-72
2023/04/30 02:20:53;;;;;;;7.18;6.47;;;23.40;75.70;;;;;;6252808;28;94055;-73
2023/04/30 02:23:55;;;;;;;6.47;5.65;;;23.40;76.60;;;;;;6239386;28;92919;-71
2023/04/30 02:26:57;;;;;;;7.28;6.57;;;23.40;75.70;;;;;;6245913;28;93344;-73
2023/04/30 02:30:01;;;;;;;7.00;6.30;;;23.40;75.70;;;;;;6252714;28;94119;-72
2023/04/30 02:33:04;;;;;;;6.90;6.20;;;23.40;75.60;;;;;;6252071;28;94180;-73
2023/04/30 02:36:06;;;;;;;7.15;6.38;;;23.40;75.70;;;;;;6253879;28;95363;-72
2023/04/30 02:39:08;;;;;;;7.68;6.88;;;23.40;75.70;;;;;;6253586;28;94184;-72
2023/04/30 02:42:11;;;;;;;7.03;6.43;;;23.40;75.70;;;;;;6253213;28;94037;-73
2023/04/30 02:45:15;;;;;;;6.82;6.18;;;23.40;75.60;;;;;;6253190;28;94095;-73
2023/04/30 02:48:17;;;;;;;7.18;6.47;;;23.40;75.50;;;;;;6248789;28;94067;-74
2023/04/30 02:51:19;;;;;;;7.38;6.68;;;23.40;75.60;;;;;;6244582;27;94034;-73
2023/04/30 02:54:21;;;;;;;6.80;6.20;;;23.30;75.50;;;;;;6240532;28;94042;-72
2023/04/30 02:57:23;;;;;;;7.13;6.43;;;23.30;75.50;;;;;;6246394;28;93359;-71
2023/04/30 03:00:26;;;;;;;7.45;6.75;;;23.30;75.50;;;;;;6248294;28;94083;-69
2023/04/30 03:03:28;;;;;;;7.13;6.53;;;23.30;75.50;;;;;;6241371;28;94339;-69
2023/04/30 03:06:30;;;;;;;7.20;6.57;;;23.30;75.50;;;;;;6251884;28;95022;-69
2023/04/30 03:09:32;;;;;;;7.55;6.85;;;23.30;75.50;;;;;;6247381;28;94183;-69
2023/04/30 03:12:34;;;;;;;7.10;6.40;;;23.30;75.50;;;;;;6247381;28;93617;-69
2023/04/30 03:15:38;;;;;;;7.70;7.00;;;23.30;75.50;;;;;;6253070;28;93068;-70
2023/04/30 03:18:40;;;;;;;7.85;7.15;;;23.30;75.50;;;;;;6248366;28;94164;-70
2023/04/30 03:21:41;;;;;;;7.30;6.60;;;23.30;75.50;;;;;;6251849;28;94401;-69
2023/04/30 03:24:43;;;;;;;7.28;6.57;;;23.30;75.50;;;;;;6241278;28;94437;-69
2023/04/30 03:27:45;;;;;;;7.13;6.43;;;23.30;75.50;;;;;;6252736;28;93446;-69
2023/04/30 03:30:49;;;;;;;7.82;7.03;;;23.30;75.50;;;;;;6248734;28;93818;-68
2023/04/30 03:33:51;;;;;;;7.68;6.93;;;23.30;75.50;;;;;;6244997;28;93915;-70
2023/04/30 03:36:53;;;;;;;7.95;7.25;;;23.30;75.50;;;;;;6252407;28;94953;-69
2023/04/30 03:39:55;;;;;;;8.05;7.25;;;23.30;75.50;;;;;;6252353;28;94109;-69
2023/04/30 03:42:57;;;;;;;7.25;6.55;;;23.30;75.50;;;;;;6247877;28;94165;-69
2023/04/30 03:46:00;;;;;;;7.63;6.93;;;23.30;75.50;;;;;;6249382;28;94457;-68
2023/04/30 03:49:02;;;;;;;7.82;7.13;;;23.30;75.50;;;;;;6248066;28;94086;-68
2023/04/30 03:52:06;;;;;;;7.53;6.82;;;23.30;75.50;;;;;;6249442;27;94105;-68
2023/04/30 03:55:08;;;;;;;7.30;6.70;;;23.30;75.60;;;;;;6251091;28;94415;-69
2023/04/30 03:58:10;;;;;;;7.43;6.72;;;23.30;75.70;;;;;;6249237;28;92614;-69
2023/04/30 04:01:13;;;;;;;7.32;6.63;;;23.30;75.60;;;;;;6249873;27;94179;-68
2023/04/30 04:04:15;;;;;;;7.65;6.95;;;23.30;75.50;;;;;;6249244;28;93371;-69
2023/04/30 04:07:17;;;;;;;7.32;6.63;;;23.30;75.50;;;;;;6251678;28;95050;-69
2023/04/30 04:10:19;;;;;;;7.45;6.75;;;23.30;75.50;;;;;;6245758;28;94083;-72
2023/04/30 04:13:21;;;;;;;7.63;6.93;;;23.30;75.40;;;;;;6242968;28;94131;-68
2023/04/30 04:16:25;;;;;;;7.57;6.88;;;23.30;75.30;;;;;;6249471;28;94074;-68
2023/04/30 04:19:27;;;;;;;7.93;7.03;;;23.30;75.20;;;;;;6247085;28;94008;-70
2023/04/30 04:22:29;;;;;;;6.15;5.53;;;23.30;75.30;;;;;;6247704;28;94122;-69
2023/04/30 04:25:32;;;;;;;8.23;6.20;;;23.30;74.90;;;;;;6245398;28;94717;-69
2023/04/30 04:28:35;;;;;;;6.63;6.03;;;23.30;74.90;;;;;;6249272;28;93356;-69
2023/04/30 04:31:41;;;;;;;6.38;5.53;;;23.30;74.90;;;;;;6247096;28;94233;-68
2023/04/30 04:34:43;;;;;;;6.80;6.18;;;23.30;74.90;;;;;;6249191;28;94080;-69
2023/04/30 04:37:45;;;;;;;6.50;5.90;;;23.40;74.90;;;;;;6250460;28;94999;-69
2023/04/30 04:40:52;;;;;;;6.45;5.82;;;23.40;74.80;;;;;;6250331;28;93880;-69
2023/04/30 04:43:55;;;;;;;6.90;6.20;;;23.40;74.70;;;;;;6247712;28;94113;-69
2023/04/30 04:46:58;;;;;;;6.30;5.70;;;23.40;74.60;;;;;;6251935;28;94220;-69
2023/04/30 04:50:01;;;;;;;6.70;5.55;;;23.40;74.70;;;;;;6247869;28;94011;-71
2023/04/30 04:53:02;;;;;;;7.72;6.00;;;23.40;74.90;;;;;;6249063;28;94417;-68
2023/04/30 04:56:05;;;;;;;6.38;5.78;;;23.40;75.20;;;;;;6245392;28;94074;-69
2023/04/30 04:59:07;;;;;;;6.75;6.13;;;23.40;75.40;;;;;;6245522;28;93627;-69
2023/04/30 05:02:11;;;;;;;7.03;6.40;;;23.40;75.50;;;;;;6251749;28;94200;-69
2023/04/30 05:05:13;;;;;;;7.60;6.80;;;23.40;75.70;;;;;;6249405;28;94123;-69
2023/04/30 05:08:15;;;;;;;8.68;7.88;;;23.40;76.00;;;;;;6248454;28;95529;-68
2023/04/30 05:11:17;;;;;;;13.85;12.45;;;23.40;76.90;;;;;;6249191;28;93716;-68
2023/04/30 05:14:19;;;;;;;10.77;9.65;;;23.50;79.60;;;;;;6250868;28;94026;-68
2023/04/30 05:17:23;;;;;;;10.80;9.15;;;23.70;77.30;;;;;;6252841;28;93789;-68
2023/04/30 05:20:25;;;;;;;9.77;8.88;;;24.00;76.10;;;;;;6255389;28;94183;-67
2023/04/30 05:23:28;;;;;;;9.85;8.85;;;24.30;75.50;;;;;;6251334;28;94132;-68
2023/04/30 05:26:30;;;;;;;10.15;9.23;;;24.40;75.00;;;;;;6246062;28;93952;-68
2023/04/30 05:29:32;;;;;;;9.90;8.95;;;24.40;74.90;;;;;;6247025;28;93396;-67
2023/04/30 05:32:35;;;;;;;9.80;8.93;;;24.40;74.90;;;;;;6250265;28;94031;-68
2023/04/30 05:35:37;;;;;;;10.20;9.10;;;24.30;75.00;;;;;;6253937;28;94508;-69
2023/04/30 05:38:39;;;;;;;9.20;8.30;;;24.30;75.20;;;;;;6256128;28;95145;-69
2023/04/30 05:41:41;;;;;;;9.02;8.20;;;24.30;75.20;;;;;;6253386;28;95213;-67
2023/04/30 05:44:43;;;;;;;8.93;8.13;;;24.30;75.20;;;;;;6255085;28;94610;-68
2023/04/30 05:47:46;;;;;;;8.98;8.07;;;24.30;75.10;;;;;;6253659;28;94163;-69
2023/04/30 05:50:48;;;;;;;10.85;8.10;;;24.30;75.10;;;;;;6254211;28;94099;-69
2023/04/30 05:53:50;;;;;;;8.55;7.57;;;24.30;75.10;;;;;;6253586;28;95342;-68
2023/04/30 05:56:52;;;;;;;9.00;8.10;;;24.30;75.20;;;;;;6251510;28;93980;-68
2023/04/30 05:59:55;;;;;;;10.30;8.10;;;24.30;75.20;;;;;;6252618;28;93317;-68
2023/04/30 06:02:58;;;;;;;8.57;7.72;;;24.30;75.20;;;;;;6252404;27;94368;-69
2023/04/30 06:06:00;;;;;;;10.15;7.68;;;24.30;75.30;;;;;;6251655;28;94062;-68
2023/04/30 06:09:03;;;;;;;8.93;7.75;;;24.30;75.30;;;;;;6254752;28;95056;-69
2023/04/30 06:12:05;;;;;;;8.40;7.60;;;24.20;75.40;;;;;;6252620;28;94049;-69
2023/04/30 06:15:08;;;;;;;8.05;7.35;;;24.20;75.40;;;;;;6252398;28;94006;-68
2023/04/30 06:18:13;;;;;;;8.00;7.20;;;24.20;75.50;;;;;;6252941;28;94039;-68
2023/04/30 06:21:15;;;;;;;8.32;7.53;;;24.10;75.40;;;;;;6254799;28;94178;-69
2023/04/30 06:24:17;;;;;;;7.53;6.90;;;24.10;75.50;;;;;;6246828;27;94171;-68
2023/04/30 06:27:19;;;;;;;7.40;6.70;;;24.10;75.60;;;;;;6250346;28;93769;-68
2023/04/30 06:30:21;;;;;;;8.02;7.22;;;24.10;75.70;;;;;;6249641;28;93335;-67
2023/04/30 06:33:24;;;;;;;8.07;6.80;;;24.10;75.70;;;;;;6252019;28;94093;-68
2023/04/30 06:36:26;;;;;;;7.65;6.95;;;24.10;75.70;;;;;;6250962;28;94293;-68
2023/04/30 06:39:28;;;;;;;7.82;7.13;;;24.10;75.70;;;;;;6252685;28;95054;-67
2023/04/30 06:42:33;;;;;;;7.35;6.60;;;24.10;75.70;;;;;;6248129;28;94158;-67
2023/04/30 06:45:35;;;;;;;7.50;6.80;;;24.10;75.80;;;;;;6252443;28;94208;-67
2023/04/30 06:48:38;;;;;;;7.07;6.38;;;24.10;76.10;;;;;;6254989;28;94208;-68
2023/04/30 06:51:41;;;;;;;7.43;6.72;;;24.00;76.20;;;;;;6252824;28;94039;-68
2023/04/30 06:54:43;;;;;;;7.28;6.57;;;24.00;76.30;;;;;;6250871;28;94124;-68
2023/04/30 06:57:45;;;;;;;7.03;6.32;;;24.00;76.30;;;;;;6252055;28;94088;-69
2023/04/30 07:00:47;;;;;;;7.10;6.50;;;24.00;76.40;;;;;;6252143;28;93398;-69
2023/04/30 07:03:53;;;;;;;6.93;6.32;;;24.00;76.40;;;;;;6248404;28;93932;-69
2023/04/30 07:06:55;;;;;;;7.07;6.38;;;24.00;76.40;;;;;;6252181;27;93199;-67
2023/04/30 07:09:57;;;;;;;8.75;7.40;;;24.00;76.70;;;;;;6250263;28;94988;-67
2023/04/30 07:12:59;;;;;;;10.27;7.88;;;24.00;76.70;;;;;;6252464;27;94474;-67
2023/04/30 07:16:01;;;;;;;10.07;8.30;;;24.00;76.70;;;;;;6249074;28;94283;-67
2023/04/30 07:19:04;;;;;;;11.60;8.50;;;24.00;76.60;;;;;;6252689;28;94279;-68
2023/04/30 07:22:06;;;;;;;11.65;9.63;;;23.90;76.50;;;;;;6246620;28;94126;-68
2023/04/30 07:25:09;;;;;;;12.77;9.15;;;24.00;76.60;;;;;;6244848;28;94210;-67
2023/04/30 07:28:11;;;;;;;12.57;9.40;;;23.90;76.40;;;;;;6251449;28;94121;-68
2023/04/30 07:31:14;;;;;;;14.85;9.82;;;24.00;76.60;;;;;;6250312;28;93196;-68
2023/04/30 07:34:17;;;;;;;16.20;11.00;;;24.00;76.60;;;;;;6247809;28;94096;-68
2023/04/30 07:37:19;;;;;;;16.42;10.50;;;23.90;76.70;;;;;;6251798;28;94029;-68
2023/04/30 07:40:21;;;;;;;13.07;10.43;;;23.90;76.60;;;;;;6251951;28;95243;-68
2023/04/30 07:43:23;;;;;;;14.90;10.35;;;23.90;76.60;;;;;;6248007;28;94338;-68
2023/04/30 07:46:25;;;;;;;17.33;11.20;;;24.00;76.70;;;;;;6236242;27;94498;-68
2023/04/30 07:49:29;;;;;;;14.93;10.85;;;23.90;76.60;;;;;;6246224;28;94220;-68
2023/04/30 07:52:31;;;;;;;14.32;10.02;;;24.00;76.80;;;;;;6244283;28;93551;-68
2023/04/30 07:55:33;;;;;;;13.57;10.45;;;24.00;76.70;;;;;;6248857;28;94081;-69
2023/04/30 07:58:35;;;;;;;16.20;10.57;;;24.00;76.90;;;;;;6245332;27;94000;-68
2023/04/30 08:01:37;;;;;;;15.75;10.63;;;24.00;76.80;;;;;;6247108;28;93323;-68
2023/04/30 08:04:40;;;;;;;15.25;10.07;;;24.00;76.90;;;;;;6250520;28;94604;-66
2023/04/30 08:07:43;;;;;;;15.10;10.32;;;24.00;77.00;;;;;;6245428;28;94187;-68
2023/04/30 08:10:45;;;;;;;18.10;10.77;;;24.00;77.00;;;;;;6249659;27;95261;-67
2023/04/30 08:13:47;;;;;;;15.15;10.55;;;24.00;77.20;;;;;;6247779;28;94591;-68
2023/04/30 08:16:49;;;;;;;13.95;10.38;;;23.90;77.10;;;;;;6244779;27;95834;-67
2023/04/30 08:19:52;;;;;;;13.68;10.50;;;24.00;77.20;;;;;;6246905;28;94088;-68
2023/04/30 08:22:54;;;;;;;13.75;10.38;;;24.00;77.30;;;;;;6245425;28;94161;-67
2023/04/30 08:25:56;;;;;;;13.95;10.57;;;24.00;77.40;;;;;;6246877;28;93999;-67
2023/04/30 08:28:58;;;;;;;12.27;9.48;;;24.00;77.30;;;;;;6245838;27;94109;-67
2023/04/30 08:32:04;;;;;;;11.25;8.82;;;24.00;77.40;;;;;;6239595;28;92305;-67
2023/04/30 08:35:09;;;;;;;12.35;9.52;;;24.00;77.20;;;;;;6239291;28;94144;-66
2023/04/30 08:38:11;;;;;;;12.90;9.65;;;24.10;76.90;;;;;;6247334;28;94087;-67
2023/04/30 08:41:14;;;;;;;13.50;8.95;;;24.00;76.90;;;;;;6251098;28;95249;-68
2023/04/30 08:44:17;;;;;;;11.88;8.43;;;24.10;76.90;;;;;;6250610;28;94363;-68
2023/04/30 08:47:21;;;;;;;23.70;10.10;;;24.10;76.90;;;;;;6249159;28;94244;-68
2023/04/30 08:50:24;;;;;;;13.60;8.45;;;24.00;76.30;;;;;;6244497;28;94262;-67
2023/04/30 08:53:27;;;;;;;13.15;8.55;;;24.10;76.90;;;;;;6245411;28;94132;-67
2023/04/30 08:56:30;;;;;;;11.80;8.48;;;24.10;76.50;;;;;;6251317;28;94355;-68
2023/04/30 08:59:32;;;;;;;11.18;8.15;;;24.10;77.00;;;;;;6245914;28;94177;-67
2023/04/30 09:02:34;;;;;;;11.90;8.27;;;24.10;76.80;;;;;;6244559;28;93453;-67
2023/04/30 09:05:38;;;;;;;10.90;7.70;;;24.10;76.80;;;;;;6248155;28;94161;-67
2023/04/30 09:08:45;;;;;;;10.70;8.23;;;24.10;77.00;;;;;;6247128;28;94119;-68
2023/04/30 09:11:47;;;;;;;10.88;8.30;;;24.10;77.00;;;;;;6250757;28;95065;-67
2023/04/30 09:15:00;;;;;;;11.05;7.93;;;24.10;77.00;;;;;;6250209;28;94101;-67
2023/04/30 09:18:10;;;;;;;9.57;7.88;;;24.10;77.10;;;;;;6250067;28;94109;-67
2023/04/30 09:21:15;;;;;;;9.88;7.50;;;24.10;77.20;;;;;;6249047;28;93749;-68
2023/04/30 09:24:17;;;;;;;10.98;8.05;;;24.10;77.20;;;;;;6245165;28;94050;-67
2023/04/30 09:27:20;;;;;;;11.63;7.90;;;24.10;77.40;;;;;;6249641;28;94080;-68
2023/04/30 09:30:32;;;;;;;11.05;7.57;;;24.10;77.40;;;;;;6247376;28;94070;-67
2023/04/30 09:33:46;;;;;;;10.30;7.68;;;24.10;77.40;;;;;;6243429;28;93387;-67
2023/04/30 09:36:56;;;;;;;9.50;7.43;;;24.10;77.50;;;;;;6249075;28;94192;-67
2023/04/30 09:39:58;;;;;;;10.18;7.10;;;24.20;77.60;;;;;;6238358;28;94115;-68
2023/04/30 09:43:00;;;;;;;10.70;7.30;;;24.10;77.40;;;;;;6247315;28;93963;-67
2023/04/30 09:46:04;;;;;;;8.73;7.55;;;24.10;77.50;;;;;;6250975;28;94483;-67
2023/04/30 09:49:06;;;;;;;11.55;7.43;;;24.10;77.70;;;;;;6240171;27;94361;-67
2023/04/30 09:52:11;;;;;;;9.02;7.35;;;24.20;77.70;;;;;;6242772;27;94089;-67
2023/04/30 09:55:13;;;;;;;8.23;7.20;;;24.20;77.70;;;;;;6247872;28;94067;-67
2023/04/30 09:58:16;;;;;;;11.65;7.13;;;24.20;77.70;;;;;;6246254;27;94175;-68
2023/04/30 10:01:19;;;;;;;8.27;6.95;;;24.20;77.60;;;;;;6245012;27;95048;-67
2023/04/30 10:04:22;;;;;;;8.82;7.43;;;24.20;77.70;;;;;;6246993;27;93357;-67
2023/04/30 10:07:31;;;;;;;8.32;6.78;;;24.20;77.60;;;;;;6244140;27;94031;-67
2023/04/30 10:10:33;;;;;;;8.32;6.85;;;24.20;77.50;;;;;;6245667;27;94305;-67
2023/04/30 10:13:45;;;;;;;9.57;6.53;;;24.20;77.40;;;;;;6241148;27;95230;-67
2023/04/30 10:16:54;;;;;;;8.27;6.70;;;24.20;77.20;;;;;;6246459;27;94879;-67
2023/04/30 10:20:02;;;;;;;7.68;6.63;;;24.20;77.20;;;;;;6246072;27;95557;-67
2023/04/30 10:23:06;;;;;;;8.88;7.03;;;24.20;77.20;;;;;;6244459;28;94047;-67
2023/04/30 10:26:09;;;;;;;7.55;6.15;;;24.20;77.10;;;;;;6240394;28;93930;-67
2023/04/30 10:29:13;;;;;;;6.90;6.25;;;24.20;77.10;;;;;;6246678;27;95052;-67
2023/04/30 10:32:16;;;;;;;8.40;6.35;;;24.20;77.00;;;;;;6242259;28;94151;-67
2023/04/30 10:35:24;;;;;;;7.40;6.40;;;24.20;76.90;;;;;;6248699;27;93398;-67
2023/04/30 10:38:29;;;;;;;8.65;6.60;;;24.20;76.90;;;;;;6250211;27;95388;-67
2023/04/30 10:41:31;;;;;;;9.38;6.78;;;24.20;77.30;;;;;;6250457;27;94032;-67
2023/04/30 10:44:34;;;;;;;6.75;6.03;;;24.10;77.10;;;;;;6251789;27;95061;-67
2023/04/30 10:47:37;;;;;;;7.15;6.20;;;24.20;77.10;;;;;;6248534;27;95845;-68
2023/04/30 10:50:43;;;;;;;10.32;6.50;;;24.20;77.10;;;;;;6249699;27;93432;-67
2023/04/30 10:53:50;;;;;;;7.03;6.10;;;24.20;77.10;;;;;;6248129;28;93927;-67
2023/04/30 10:56:52;;;;;;;6.53;5.78;;;24.20;77.00;;;;;;6244684;27;94191;-68
2023/04/30 11:00:24;;;;;;;7.05;5.78;;;24.20;77.00;;;;;;6249422;27;94377;-67
2023/04/30 11:03:28;;;;;;;6.95;6.10;;;24.20;76.90;;;;;;6248232;27;94272;-68
2023/04/30 11:06:49;;;;;;;6.90;5.97;;;24.20;76.80;;;;;;6242528;27;93403;-68
2023/04/30 11:09:57;;;;;;;6.63;5.60;;;24.20;76.80;;;;;;6248122;27;94127;-68
2023/04/30 11:13:04;;;;;;;8.02;6.30;;;24.20;76.80;;;;;;6251092;27;94182;-68
2023/04/30 11:16:06;;;;;;;6.93;5.53;;;24.20;76.80;;;;;;6249222;28;95349;-68
2023/04/30 11:19:11;;;;;;;9.07;5.72;;;24.20;76.90;;;;;;6249060;28;94414;-68
2023/04/30 11:22:22;;;;;;;8.55;5.63;;;24.20;76.90;;;;;;6243139;28;94185;-68
2023/04/30 11:25:25;;;;;;;5.95;5.03;;;24.20;77.10;;;;;;6249205;28;95164;-68
2023/04/30 11:28:29;;;;;;;6.20;5.60;;;24.20;77.00;;;;;;6252422;28;94052;-68
2023/04/30 11:31:33;;;;;;;5.75;5.05;;;24.20;76.90;;;;;;6246760;28;94272;-68
2023/04/30 11:34:36;;;;;;;7.90;5.13;;;24.20;76.90;;;;;;6239374;28;94124;-69
2023/04/30 11:37:42;;;;;;;6.82;5.18;;;24.20;77.70;;;;;;6243040;27;93077;-69
2023/04/30 11:40:47;;;;;;;7.65;5.15;;;24.20;78.60;;;;;;6251217;27;95093;-69
2023/04/30 11:43:49;;;;;;;6.82;5.30;;;24.30;78.30;;;;;;6244499;27;94174;-69
2023/04/30 11:46:51;;;;;;;6.53;5.05;;;24.30;78.00;;;;;;6242679;27;95347;-70
2023/04/30 11:49:56;;;;;;;7.30;5.18;;;24.20;77.60;;;;;;6244268;28;94096;-69
2023/04/30 11:53:02;;;;;;;6.70;5.40;;;24.30;78.00;;;;;;6248284;28;94056;-69
2023/04/30 11:56:06;;;;;;;7.88;4.97;;;24.30;77.90;;;;;;6248834;27;94241;-68
2023/04/30 11:59:11;;;;;;;7.55;5.32;;;24.30;77.60;;;;;;6239332;27;95341;-69
2023/04/30 12:02:15;;;;;;;7.78;5.32;;;24.30;77.60;;;;;;6249030;27;94168;-68
2023/04/30 12:05:20;;;;;;;6.70;5.35;;;24.30;78.70;;;;;;6249880;27;94355;-69
2023/04/30 12:08:22;;;;;;;12.63;5.15;;;24.30;77.70;;;;;;6246025;27;93611;-68
2023/04/30 12:11:27;;;;;;;9.18;5.15;;;24.30;77.90;;;;;;6242083;27;93644;-68
2023/04/30 12:14:32;;;;;;;5.70;5.10;;;24.30;77.90;;;;;;6250551;27;94117;-68
2023/04/30 12:17:35;;;;;;;8.38;5.00;;;24.20;77.90;;;;;;6251362;28;95134;-68
2023/04/30 12:20:38;;;;;;;7.25;5.28;;;24.30;78.00;;;;;;6251344;27;94189;-68
2023/04/30 12:23:41;;;;;;;9.30;5.00;;;24.20;77.80;;;;;;6246862;28;94491;-68
2023/04/30 12:26:45;;;;;;;5.82;4.97;;;24.20;77.90;;;;;;6250904;28;94559;-69
2023/04/30 12:29:49;;;;;;;7.75;5.10;;;24.20;78.10;;;;;;6250292;28;94468;-68
2023/04/30 12:32:53;;;;;;;5.85;4.43;;;24.20;78.10;;;;;;6239942;28;94084;-68
2023/04/30 12:35:57;;;;;;;5.22;4.50;;;24.20;77.90;;;;;;6249808;28;94331;-68
2023/04/30 12:39:09;;;;;;;7.82;4.93;;;24.20;77.90;;;;;;6243859;28;93372;-68
2023/04/30 12:42:12;;;;;;;6.40;4.70;;;24.20;77.90;;;;;;6248087;28;94328;-68
2023/04/30 12:45:44;;;;;;;7.82;5.28;;;24.20;78.00;;;;;;6241381;28;94178;-68
2023/04/30 12:48:46;;;;;;;6.78;4.90;;;24.20;78.00;;;;;;6251051;28;95138;-68
2023/04/30 12:51:48;;;;;;;9.57;4.95;;;24.20;78.40;;;;;;6246534;28;94084;-67
2023/04/30 12:54:50;;;;;;;6.93;4.60;;;24.20;79.80;;;;;;6241543;28;94333;-68
2023/04/30 12:58:07;;;;;;;7.70;4.90;;;24.20;79.30;;;;;;6249742;28;94258;-69
2023/04/30 13:01:12;;;;;;;7.07;4.53;;;24.20;79.40;;;;;;6249464;28;94143;-69
2023/04/30 13:04:14;;;;;;;7.32;4.75;;;24.20;79.30;;;;;;6251777;28;94484;-68
2023/04/30 13:07:16;;;;;;;8.48;4.70;;;24.20;79.30;;;;;;6243858;28;94257;-68
2023/04/30 13:10:18;;;;;;;5.63;4.70;;;24.20;79.30;;;;;;6252854;28;93683;-68
2023/04/30 13:13:21;;;;;;;5.07;4.38;;;24.20;79.30;;;;;;6251078;28;93941;-68
2023/04/30 13:16:24;;;;;;;8.35;4.82;;;24.20;79.40;;;;;;6252515;28;94129;-68
2023/04/30 13:19:26;;;;;;;6.70;4.20;;;24.20;79.60;;;;;;6251155;28;96541;-68
2023/04/30 13:22:29;;;;;;;5.63;4.22;;;24.20;80.20;;;;;;6240650;28;94046;-69
2023/04/30 13:25:32;;;;;;;6.68;4.55;;;24.30;80.10;;;;;;6249028;28;94197;-69
2023/04/30 13:28:35;;;;;;;9.80;4.60;;;24.20;80.50;;;;;;6251610;28;94068;-68
2023/04/30 13:31:37;;;;;;;5.55;4.47;;;24.30;81.20;;;;;;6248010;28;94197;-69
2023/04/30 13:34:39;;;;;;;7.10;5.00;;;24.30;83.40;;;;;;6247238;28;94144;-71
2023/04/30 13:37:42;;;;;;;11.90;4.47;;;24.30;84.80;;;;;;6256071;27;94141;-69
2023/04/30 13:40:44;;;;;;;9.63;5.22;;;24.40;88.80;;;;;;6256790;28;93383;-72
2023/04/30 13:43:47;;;;;;;10.88;4.97;;;24.40;90.40;;;;;;6255810;28;95782;-70
2023/04/30 13:46:49;;;;;;;7.25;5.07;;;24.50;92.20;;;;;;6255106;28;94035;-70
2023/04/30 13:49:51;;;;;;;8.00;4.50;;;24.60;94.60;;;;;;6252540;28;94787;-70
2023/04/30 13:52:53;;;;;;;10.27;4.95;;;24.60;90.10;;;;;;6255981;28;94113;-70
2023/04/30 13:55:58;;;;;;;238.70;65.32;;;24.60;88.80;;;;;;6255710;28;94315;-68
2023/04/30 13:59:02;;;;;;;88.70;29.58;;;24.60;92.40;;;;;;6246546;28;94242;-71
2023/04/30 14:02:04;;;;;;;58.63;22.10;;;24.70;93.00;;;;;;6248029;28;94129;-70
2023/04/30 14:05:07;;;;;;;50.17;17.50;;;24.70;87.90;;;;;;6252354;28;94114;-72
2023/04/30 14:08:08;;;;;;;40.92;13.50;;;24.80;82.90;;;;;;6254435;28;94183;-72
2023/04/30 14:11:10;;;;;;;29.92;11.00;;;24.80;79.20;;;;;;6254410;28;93377;-73
2023/04/30 14:14:14;;;;;;;24.98;9.88;;;24.80;78.70;;;;;;6254603;28;94175;-73
2023/04/30 14:17:16;;;;;;;21.70;9.70;;;24.90;77.10;;;;;;6250388;28;94346;-72
2023/04/30 14:20:18;;;;;;;27.17;9.23;;;24.90;75.90;;;;;;6254162;28;95036;-72
2023/04/30 14:23:20;;;;;;;19.60;9.25;;;24.90;75.00;;;;;;6238805;28;94088;-70
2023/04/30 14:26:22;;;;;;;15.00;7.47;;;24.90;74.00;;;;;;6250117;28;94572;-72
2023/04/30 14:29:26;;;;;;;21.05;9.07;;;24.90;73.00;;;;;;6251722;28;94162;-73
2023/04/30 14:32:28;;;;;;;13.10;7.82;;;24.90;72.70;;;;;;6252562;28;94204;-70
2023/04/30 14:35:30;;;;;;;18.58;8.52;;;24.90;71.90;;;;;;6255021;28;94116;-72
2023/04/30 14:38:32;;;;;;;19.25;8.85;;;24.90;77.20;;;;;;6254300;28;94064;-72
2023/04/30 14:41:36;;;;;;;21.75;9.20;;;24.90;79.20;;;;;;6254932;28;93385;-72
2023/04/30 14:44:40;;;;;;;16.45;8.45;;;24.90;80.10;;;;;;6253525;28;94055;-72
2023/04/30 14:47:42;;;;;;;16.58;8.25;;;25.00;80.10;;;;;;6251345;28;94133;-72
2023/04/30 14:50:44;;;;;;;11.95;7.30;;;25.40;77.90;;;;;;6253526;28;95442;-72
2023/04/30 14:53:46;;;;;;;11.65;6.72;;;25.70;75.90;;;;;;6252573;28;94116;-72
2023/04/30 14:56:49;;;;;;;9.98;6.20;;;25.90;74.80;;;;;;6254541;28;94111;-71
2023/04/30 14:59:56;;;;;;;9.07;5.22;;;26.00;71.10;;;;;;6254436;28;94468;-71
2023/04/30 15:02:58;;;;;;;7.85;4.90;;;25.90;67.70;;;;;;6253906;28;94152;-70
2023/04/30 15:06:00;;;;;;;7.43;5.03;;;25.80;66.50;;;;;;6252091;28;94026;-73
2023/04/30 15:09:02;;;;;;;7.00;4.63;;;25.70;65.70;;;;;;6252450;28;94064;-73
2023/04/30 15:12:05;;;;;;;5.78;4.80;;;25.60;66.30;;;;;;6255022;28;93379;-72
2023/04/30 15:15:09;;;;;;;5.97;4.45;;;25.40;65.00;;;;;;6252973;28;94128;-72
2023/04/30 15:18:12;;;;;;;9.30;4.95;;;25.20;64.20;;;;;;6252766;28;94241;-72
2023/04/30 15:21:14;;;;;;;7.35;4.68;;;25.00;64.90;;;;;;6251656;28;95235;-73
2023/04/30 15:24:16;;;;;;;9.88;5.22;;;24.90;64.20;;;;;;6241704;28;93705;-72
2023/04/30 15:27:18;;;;;;;12.02;6.03;;;24.80;64.20;;;;;;6252678;28;94128;-72
2023/04/30 15:30:22;;;;;;;8.57;4.80;;;24.70;64.40;;;;;;6253651;28;94120;-71
2023/04/30 15:33:26;;;;;;;9.02;4.70;;;24.60;64.10;;;;;;6242506;28;92281;-72
2023/04/30 15:36:28;;;;;;;7.22;3.95;;;24.60;65.00;;;;;;6250585;28;94612;-72
2023/04/30 15:39:30;;;;;;;10.07;4.95;;;24.50;62.00;;;;;;6252439;28;93020;-72
2023/04/30 15:42:32;;;;;;;9.55;4.50;;;24.30;62.80;;;;;;6253091;28;93577;-72
2023/04/30 15:45:36;;;;;;;7.97;4.22;;;24.20;62.50;;;;;;6252048;28;94371;-71
2023/04/30 15:48:38;;;;;;;9.25;4.60;;;24.10;61.40;;;;;;6252861;28;94357;-71
2023/04/30 15:51:40;;;;;;;9.90;4.88;;;24.10;62.20;;;;;;6253275;28;95056;-72